Time;durP1;ratioP1;P1;durP2;ratioP2;P2;SDS_P1;SDS_P2;PMS_P1;PMS_P2;Temp;Humidity;BMP_temperature;BMP_pressure;BME280_temperature;BME280_humidity;BME280_pressure;Samples;Min_cycle;Max_cycle;Signal;HPM_P1;HPM_P2
2022/04/04 00:01:08;;;;;;;11.45;7.35;;;5.30;99.90;;;;;;6306134;22;20088;-75
2022/04/04 00:03:34;;;;;;;10.07;7.05;;;5.40;99.90;;;;;;6306630;22;20011;-75
2022/04/04 00:06:00;;;;;;;11.75;7.60;;;5.40;99.90;;;;;;6307825;22;20421;-75
2022/04/04 00:08:27;;;;;;;10.02;7.95;;;5.30;99.90;;;;;;6307508;22;20090;-76
2022/04/04 00:10:53;;;;;;;10.52;8.25;;;5.30;99.90;;;;;;6278303;22;20014;-75
2022/04/04 00:13:19;;;;;;;13.00;9.30;;;5.20;99.90;;;;;;6307261;22;20003;-75
2022/04/04 00:15:47;;;;;;;12.25;8.23;;;5.20;99.90;;;;;;6305854;22;20068;-75
2022/04/04 00:18:13;;;;;;;11.90;8.30;;;5.20;99.90;;;;;;6279806;22;20102;-75
2022/04/04 00:20:40;;;;;;;10.63;8.50;;;5.20;99.90;;;;;;6280217;22;20034;-75
2022/04/04 00:23:12;;;;;;;13.18;8.90;;;5.10;99.90;;;;;;6305709;22;19999;-75
2022/04/04 00:25:46;;;;;;;15.25;9.23;;;5.10;99.90;;;;;;6306835;22;20420;-75
2022/04/04 00:28:13;;;;;;;13.30;10.15;;;5.00;99.90;;;;;;6307659;22;19999;-75
2022/04/04 00:30:41;;;;;;;13.65;10.18;;;4.90;99.90;;;;;;6307667;22;19999;-75
2022/04/04 00:33:07;;;;;;;14.43;11.57;;;5.00;99.90;;;;;;6307460;22;20092;-75
2022/04/04 00:35:34;;;;;;;16.33;10.20;;;4.90;99.90;;;;;;6278456;22;20007;-75
2022/04/04 00:38:00;;;;;;;16.02;10.07;;;4.90;99.90;;;;;;6306832;22;20003;-75
2022/04/04 00:40:27;;;;;;;13.38;9.73;;;4.90;99.90;;;;;;6306088;22;19999;-75
2022/04/04 00:42:53;;;;;;;14.82;10.10;;;4.80;99.90;;;;;;6307436;22;20003;-75
2022/04/04 00:45:19;;;;;;;17.80;11.23;;;4.90;99.90;;;;;;6307111;22;20044;-75
2022/04/04 00:47:45;;;;;;;16.42;10.80;;;4.80;99.90;;;;;;6307270;22;19995;-74
2022/04/04 00:50:11;;;;;;;14.77;10.43;;;4.80;99.90;;;;;;6306081;22;19999;-75
2022/04/04 00:52:37;;;;;;;17.60;11.05;;;4.70;99.90;;;;;;6306451;22;19999;-74
2022/04/04 00:55:03;;;;;;;17.50;11.30;;;4.70;99.90;;;;;;6307158;22;20007;-74
2022/04/04 00:57:29;;;;;;;21.38;10.65;;;4.70;99.90;;;;;;6307349;22;20306;-75
2022/04/04 00:59:55;;;;;;;15.50;11.57;;;4.70;99.90;;;;;;6279404;22;20082;-74
2022/04/04 01:02:21;;;;;;;18.80;11.68;;;4.70;99.90;;;;;;6306158;22;19999;-74
2022/04/04 01:04:47;;;;;;;18.08;11.98;;;4.70;99.90;;;;;;6306506;22;20137;-74
2022/04/04 01:07:12;;;;;;;15.20;11.13;;;4.70;99.90;;;;;;6307167;22;20014;-74
2022/04/04 01:09:38;;;;;;;15.52;9.50;;;4.60;99.90;;;;;;6305328;22;20495;-75
2022/04/04 01:12:09;;;;;;;13.80;9.52;;;4.60;99.90;;;;;;6279957;22;20090;-75
2022/04/04 01:14:38;;;;;;;18.55;10.02;;;4.60;99.90;;;;;;6305848;22;20384;-74
2022/04/04 01:17:08;;;;;;;17.98;9.70;;;4.60;99.90;;;;;;6307208;22;19999;-75
2022/04/04 01:19:34;;;;;;;16.25;10.55;;;4.60;99.90;;;;;;6307408;22;20030;-74
2022/04/04 01:22:03;;;;;;;13.02;10.48;;;4.60;99.90;;;;;;6282905;22;20375;-74
2022/04/04 01:24:29;;;;;;;15.23;10.35;;;4.70;99.90;;;;;;6310305;22;20078;-75
2022/04/04 01:26:55;;;;;;;13.50;10.00;;;4.70;99.90;;;;;;6307648;22;20333;-75
2022/04/04 01:29:22;;;;;;;14.60;8.98;;;4.70;99.90;;;;;;6279860;22;20010;-75
2022/04/04 01:31:49;;;;;;;12.95;9.27;;;4.60;99.90;;;;;;6306874;22;20309;-75
2022/04/04 01:34:16;;;;;;;11.85;8.85;;;4.50;99.90;;;;;;6306100;22;20455;-74
2022/04/04 01:36:42;;;;;;;12.90;10.07;;;4.60;99.90;;;;;;6306475;22;20369;-75
2022/04/04 01:39:08;;;;;;;13.75;9.18;;;4.60;99.90;;;;;;6307396;22;20003;-74
2022/04/04 01:41:34;;;;;;;11.35;9.00;;;4.50;99.90;;;;;;6306848;22;19995;-74
2022/04/04 01:43:59;;;;;;;13.65;10.95;;;4.40;99.90;;;;;;6307227;22;20334;-74
2022/04/04 01:46:29;;;;;;;13.90;10.30;;;4.40;99.90;;;;;;6306205;22;20070;-74
2022/04/04 01:48:57;;;;;;;12.60;9.43;;;4.50;99.90;;;;;;6278646;22;20003;-74
2022/04/04 01:51:23;;;;;;;14.05;8.57;;;4.40;99.90;;;;;;6306338;22;20010;-75
2022/04/04 01:53:49;;;;;;;12.45;8.75;;;4.40;99.90;;;;;;6306652;22;20011;-74
2022/04/04 01:56:16;;;;;;;13.40;9.55;;;4.30;99.90;;;;;;6304870;22;20003;-74
2022/04/04 01:58:41;;;;;;;11.73;8.45;;;4.30;99.90;;;;;;6306883;22;20011;-74
2022/04/04 02:01:12;;;;;;;14.15;9.25;;;4.30;99.90;;;;;;6306620;22;20003;-74
2022/04/04 02:03:38;;;;;;;13.18;8.68;;;4.30;99.90;;;;;;6304958;22;20032;-74
2022/04/04 02:06:04;;;;;;;11.25;8.50;;;4.40;99.90;;;;;;6305797;22;20037;-74
2022/04/04 02:08:31;;;;;;;15.55;8.85;;;4.40;99.90;;;;;;6305986;22;20477;-74
2022/04/04 02:10:57;;;;;;;14.93;10.45;;;4.30;99.90;;;;;;6307255;22;20007;-74
2022/04/04 02:13:25;;;;;;;13.48;9.45;;;4.20;99.90;;;;;;6309295;22;20006;-74
2022/04/04 02:15:52;;;;;;;14.30;9.60;;;4.30;99.90;;;;;;6281055;22;20399;-74
2022/04/04 02:18:19;;;;;;;14.32;9.13;;;4.30;99.90;;;;;;6308006;22;20009;-74
2022/04/04 02:20:46;;;;;;;12.88;8.55;;;4.30;99.90;;;;;;6306869;22;19999;-74
2022/04/04 02:23:12;;;;;;;13.18;9.43;;;4.30;99.90;;;;;;6308767;22;19996;-74
2022/04/04 02:25:38;;;;;;;14.00;8.98;;;4.20;99.90;;;;;;6306952;22;19999;-74
2022/04/04 02:28:04;;;;;;;12.38;8.68;;;4.10;99.90;;;;;;6281687;22;20009;-74
2022/04/04 02:30:29;;;;;;;15.13;8.80;;;4.30;99.90;;;;;;6279849;22;20007;-74
2022/04/04 02:32:55;;;;;;;12.73;7.78;;;4.20;99.90;;;;;;6308276;22;20014;-74
2022/04/04 02:35:21;;;;;;;12.95;7.88;;;4.20;99.90;;;;;;6306847;22;20041;-74
2022/04/04 02:37:47;;;;;;;13.30;8.88;;;4.10;99.90;;;;;;6307610;22;20436;-74
2022/04/04 02:40:13;;;;;;;12.98;8.65;;;4.10;99.90;;;;;;6308487;22;20005;-74
2022/04/04 02:42:40;;;;;;;13.70;9.20;;;4.20;99.90;;;;;;6307615;22;20286;-74
2022/04/04 02:45:06;;;;;;;13.75;9.38;;;4.20;99.90;;;;;;6307873;22;20006;-74
2022/04/04 02:47:33;;;;;;;12.27;7.75;;;4.20;99.90;;;;;;6308844;22;19996;-74
2022/04/04 02:49:58;;;;;;;13.63;8.55;;;4.20;99.90;;;;;;6308183;22;20455;-74
2022/04/04 02:52:24;;;;;;;16.00;8.50;;;4.20;99.90;;;;;;6308308;22;20085;-74
2022/04/04 02:54:49;;;;;;;11.05;7.93;;;4.20;99.90;;;;;;6306906;22;20003;-74
2022/04/04 02:57:17;;;;;;;15.88;7.95;;;4.20;99.90;;;;;;6308276;22;20148;-74
2022/04/04 02:59:44;;;;;;;11.20;8.02;;;4.20;99.90;;;;;;6306655;22;20010;-74
2022/04/04 03:02:10;;;;;;;11.75;7.78;;;4.30;99.90;;;;;;6308362;22;20023;-74
2022/04/04 03:04:39;;;;;;;11.30;7.32;;;4.30;99.90;;;;;;6307301;22;20008;-74
2022/04/04 03:07:07;;;;;;;11.98;7.88;;;4.30;99.90;;;;;;6307779;22;20091;-74
2022/04/04 03:09:32;;;;;;;17.60;8.02;;;4.30;99.90;;;;;;6306943;22;20007;-74
2022/04/04 03:11:58;;;;;;;11.25;7.72;;;4.30;99.90;;;;;;6307709;22;20310;-74
2022/04/04 03:14:24;;;;;;;14.07;7.55;;;4.20;99.90;;;;;;6308011;22;20405;-74
2022/04/04 03:16:50;;;;;;;11.15;7.97;;;4.30;99.90;;;;;;6307145;22;20003;-74
2022/04/04 03:19:16;;;;;;;10.77;7.88;;;4.40;99.90;;;;;;6307751;22;20413;-74
2022/04/04 03:21:42;;;;;;;11.75;7.75;;;4.40;99.90;;;;;;6305939;22;20002;-74
2022/04/04 03:24:07;;;;;;;9.95;7.22;;;4.40;99.90;;;;;;6280430;22;20003;-74
2022/04/04 03:26:33;;;;;;;12.90;7.70;;;4.40;99.90;;;;;;6281136;22;20023;-74
2022/04/04 03:28:59;;;;;;;14.18;8.73;;;4.40;99.90;;;;;;6306059;22;20057;-74
2022/04/04 03:31:25;;;;;;;11.50;7.78;;;4.50;99.90;;;;;;6307869;22;20006;-74
2022/04/04 03:33:51;;;;;;;12.75;8.57;;;4.50;99.90;;;;;;6278247;22;20014;-74
2022/04/04 03:36:16;;;;;;;14.93;9.00;;;4.50;99.90;;;;;;6280235;22;20040;-74
2022/04/04 03:38:42;;;;;;;18.50;10.43;;;4.50;99.90;;;;;;6307389;22;20056;-74
2022/04/04 03:41:09;;;;;;;13.55;9.38;;;4.50;99.90;;;;;;6309013;22;20000;-75
2022/04/04 03:43:35;;;;;;;14.68;10.82;;;4.50;99.90;;;;;;6311062;22;20025;-75
2022/04/04 03:46:01;;;;;;;17.90;10.50;;;4.50;99.90;;;;;;6307702;22;20380;-74
2022/04/04 03:48:27;;;;;;;16.55;10.93;;;4.60;99.90;;;;;;6307634;22;20003;-74
2022/04/04 03:50:54;;;;;;;16.58;10.57;;;4.60;99.90;;;;;;6306457;22;20768;-74
2022/04/04 03:53:21;;;;;;;15.13;9.75;;;4.50;99.90;;;;;;6307228;22;20078;-74
2022/04/04 03:55:48;;;;;;;15.45;10.13;;;4.40;99.90;;;;;;6280674;22;20014;-74
2022/04/04 03:58:15;;;;;;;14.80;9.30;;;4.40;99.90;;;;;;6307764;22;20053;-74
2022/04/04 04:00:41;;;;;;;16.85;8.75;;;4.50;99.90;;;;;;6307587;22;20420;-74
2022/04/04 04:03:08;;;;;;;14.73;9.38;;;4.50;99.90;;;;;;6305577;22;20056;-75
2022/04/04 04:05:35;;;;;;;17.23;9.57;;;4.50;99.90;;;;;;6307603;22;20094;-74
2022/04/04 04:08:01;;;;;;;15.73;9.38;;;4.50;99.90;;;;;;6307410;22;20428;-74
2022/04/04 04:10:26;;;;;;;15.10;9.40;;;4.40;99.90;;;;;;6307834;22;20048;-74
2022/04/04 04:12:52;;;;;;;18.38;10.68;;;4.50;99.90;;;;;;6306778;22;20021;-74
2022/04/04 04:15:21;;;;;;;15.68;9.63;;;4.50;99.90;;;;;;6306499;22;20002;-74
2022/04/04 04:17:51;;;;;;;19.38;10.38;;;4.50;99.90;;;;;;6307548;22;20022;-74
2022/04/04 04:20:23;;;;;;;13.60;9.70;;;4.60;99.90;;;;;;6306041;22;20004;-74
2022/04/04 04:23:01;;;;;;;14.85;9.27;;;4.60;99.90;;;;;;6307517;22;20438;-74
2022/04/04 04:25:29;;;;;;;15.25;10.38;;;4.60;99.90;;;;;;6306153;22;19995;-74
2022/04/04 04:28:00;;;;;;;10.98;8.52;;;4.60;99.90;;;;;;6307298;22;19999;-74
2022/04/04 04:30:26;;;;;;;10.25;7.72;;;4.50;99.90;;;;;;6279991;22;20029;-74
2022/04/04 04:32:53;;;;;;;13.10;8.60;;;4.60;99.90;;;;;;6306487;22;19995;-74
2022/04/04 04:35:19;;;;;;;12.57;8.02;;;4.50;99.90;;;;;;6306247;22;20004;-74
2022/04/04 04:37:46;;;;;;;14.95;9.13;;;4.50;99.90;;;;;;6280042;22;19995;-74
2022/04/04 04:40:12;;;;;;;16.80;10.25;;;4.40;99.90;;;;;;6306930;22;19999;-74
2022/04/04 04:42:39;;;;;;;15.00;10.30;;;4.50;99.90;;;;;;6279688;22;20002;-74
2022/04/04 04:45:06;;;;;;;17.17;10.18;;;4.50;99.90;;;;;;6305384;22;20006;-74
2022/04/04 04:47:33;;;;;;;17.30;11.38;;;4.50;99.90;;;;;;6307275;22;19999;-74
2022/04/04 04:50:00;;;;;;;20.23;11.55;;;4.60;99.90;;;;;;6305490;22;20329;-74
2022/04/04 04:52:26;;;;;;;20.50;11.82;;;4.50;99.90;;;;;;6307284;22;20003;-74
2022/04/04 04:54:53;;;;;;;20.30;12.57;;;4.50;99.90;;;;;;6305396;22;20006;-74
2022/04/04 04:57:19;;;;;;;21.30;11.95;;;4.50;99.90;;;;;;6307294;22;20470;-74
2022/04/04 04:59:45;;;;;;;18.10;10.93;;;4.60;99.90;;;;;;6304906;22;20000;-74
2022/04/04 05:02:11;;;;;;;15.10;11.23;;;4.50;99.90;;;;;;6306716;22;20027;-74
2022/04/04 05:04:37;;;;;;;17.20;11.15;;;4.50;99.90;;;;;;6306863;22;20412;-74
2022/04/04 05:07:03;;;;;;;21.20;11.15;;;4.50;99.90;;;;;;6305393;22;20004;-74
2022/04/04 05:09:29;;;;;;;18.27;11.50;;;4.40;99.90;;;;;;6306502;22;20068;-74
2022/04/04 05:11:55;;;;;;;16.85;10.85;;;4.50;99.90;;;;;;6307164;22;20429;-74
2022/04/04 05:14:20;;;;;;;18.60;10.98;;;4.40;99.90;;;;;;6305311;22;20033;-74
2022/04/04 05:16:48;;;;;;;16.27;10.93;;;4.50;99.90;;;;;;6307200;22;20007;-74
2022/04/04 05:19:17;;;;;;;20.80;11.95;;;4.40;99.90;;;;;;6306342;22;19999;-74
2022/04/04 05:21:43;;;;;;;20.55;12.73;;;4.40;99.90;;;;;;6305730;22;19999;-74
2022/04/04 05:24:09;;;;;;;21.80;12.15;;;4.40;99.90;;;;;;6279987;22;20478;-74
2022/04/04 05:26:35;;;;;;;17.63;11.25;;;4.50;99.90;;;;;;6304985;22;20006;-75
2022/04/04 05:29:01;;;;;;;17.83;12.15;;;4.50;99.90;;;;;;6306718;22;20000;-74
2022/04/04 05:31:27;;;;;;;17.67;10.23;;;4.50;99.90;;;;;;6306652;22;20556;-74
2022/04/04 05:33:54;;;;;;;21.48;12.55;;;4.50;99.90;;;;;;6305522;22;20043;-75
2022/04/04 05:36:20;;;;;;;20.55;13.10;;;4.60;99.90;;;;;;6279354;22;20058;-74
2022/04/04 05:38:50;;;;;;;27.30;13.85;;;4.60;99.90;;;;;;6306986;22;20029;-74
2022/04/04 05:41:19;;;;;;;20.45;11.77;;;4.60;99.90;;;;;;6306513;22;20035;-74
2022/04/04 05:43:45;;;;;;;19.42;12.32;;;4.70;99.90;;;;;;6279829;22;20009;-74
2022/04/04 05:46:15;;;;;;;24.77;11.73;;;4.70;99.90;;;;;;6308185;22;20005;-74
2022/04/04 05:48:41;;;;;;;23.23;11.65;;;4.70;99.90;;;;;;6308923;22;20003;-74
2022/04/04 05:51:08;;;;;;;19.58;11.07;;;4.80;99.90;;;;;;6308910;22;20011;-74
2022/04/04 05:53:34;;;;;;;24.30;12.15;;;4.80;99.90;;;;;;6308960;22;20324;-75
2022/04/04 05:56:00;;;;;;;23.38;12.02;;;4.80;99.90;;;;;;6309166;22;20003;-75
2022/04/04 05:58:26;;;;;;;18.85;11.30;;;4.90;99.90;;;;;;6306934;22;20455;-74
2022/04/04 06:00:52;;;;;;;20.73;11.93;;;5.00;99.90;;;;;;6308480;22;20037;-74
2022/04/04 06:03:20;;;;;;;19.90;12.35;;;5.10;99.90;;;;;;6309061;22;20003;-75
2022/04/04 06:05:49;;;;;;;26.15;12.65;;;5.00;99.90;;;;;;6308848;22;20003;-75
2022/04/04 06:08:18;;;;;;;19.55;11.63;;;5.00;99.90;;;;;;6308027;22;20011;-74
2022/04/04 06:10:47;;;;;;;18.85;11.27;;;5.00;99.90;;;;;;6309807;22;20074;-74
2022/04/04 06:13:14;;;;;;;22.30;12.05;;;5.00;99.90;;;;;;6309189;22;19999;-75
2022/04/04 06:15:40;;;;;;;20.63;12.02;;;5.10;99.90;;;;;;6281561;22;20007;-75
2022/04/04 06:18:06;;;;;;;25.13;13.07;;;5.20;99.90;;;;;;6308836;22;20037;-75
2022/04/04 06:20:32;;;;;;;22.38;12.98;;;5.20;99.90;;;;;;6306696;22;20023;-75
2022/04/04 06:22:58;;;;;;;24.20;12.13;;;5.20;99.90;;;;;;6308859;22;20328;-74
2022/04/04 06:25:23;;;;;;;21.05;11.93;;;5.20;99.90;;;;;;6309215;22;20428;-74
2022/04/04 06:27:50;;;;;;;22.90;12.63;;;5.30;99.90;;;;;;6280872;22;20770;-74
2022/04/04 06:30:16;;;;;;;26.38;14.23;;;5.30;99.90;;;;;;6309070;22;20069;-75
2022/04/04 06:32:45;;;;;;;23.77;13.13;;;5.40;99.90;;;;;;6306499;22;20000;-75
2022/04/04 06:35:14;;;;;;;20.77;12.40;;;5.40;99.90;;;;;;6308052;22;19999;-75
2022/04/04 06:37:45;;;;;;;23.15;13.65;;;5.40;99.90;;;;;;6280890;22;20010;-74
2022/04/04 06:40:12;;;;;;;24.98;12.57;;;5.40;99.90;;;;;;6307508;22;20003;-74
2022/04/04 06:42:43;;;;;;;22.83;12.85;;;5.50;99.90;;;;;;6307014;22;20070;-74
2022/04/04 06:45:10;;;;;;;27.48;13.27;;;5.50;99.90;;;;;;6308137;22;19999;-75
2022/04/04 06:47:37;;;;;;;22.15;13.85;;;5.50;99.90;;;;;;6308064;22;20023;-74
2022/04/04 06:50:04;;;;;;;22.52;11.70;;;5.60;99.90;;;;;;6279006;22;20035;-74
2022/04/04 06:52:30;;;;;;;21.10;12.52;;;5.60;99.90;;;;;;6307940;22;20010;-74
2022/04/04 06:54:57;;;;;;;23.98;12.23;;;5.70;99.90;;;;;;6308189;22;20010;-74
2022/04/04 06:57:23;;;;;;;21.55;12.85;;;5.80;99.90;;;;;;6306233;22;20006;-74
2022/04/04 06:59:50;;;;;;;18.83;12.90;;;5.80;99.90;;;;;;6306855;22;20080;-74
2022/04/04 07:02:16;;;;;;;21.90;13.40;;;5.90;99.90;;;;;;6307260;22;20007;-74
2022/04/04 07:04:42;;;;;;;19.38;12.95;;;5.90;99.90;;;;;;6307143;22;20317;-74
2022/04/04 07:07:10;;;;;;;21.70;12.07;;;6.10;99.90;;;;;;6306299;22;20069;-75
2022/04/04 07:09:36;;;;;;;23.83;13.32;;;6.10;99.90;;;;;;6278734;22;20003;-74
2022/04/04 07:12:03;;;;;;;18.65;11.73;;;6.30;99.90;;;;;;6307215;22;20090;-74
2022/04/04 07:14:29;;;;;;;20.67;13.13;;;6.30;99.90;;;;;;6308086;22;20000;-75
2022/04/04 07:16:55;;;;;;;24.08;12.30;;;6.30;99.90;;;;;;6305858;22;20068;-75
2022/04/04 07:19:23;;;;;;;26.83;12.75;;;6.50;99.90;;;;;;6306565;22;19999;-75
2022/04/04 07:21:52;;;;;;;20.75;12.35;;;6.50;99.90;;;;;;6307513;22;20007;-75
2022/04/04 07:24:19;;;;;;;24.27;13.95;;;6.60;99.90;;;;;;6305830;22;19999;-74
2022/04/04 07:26:48;;;;;;;21.85;12.77;;;6.70;99.90;;;;;;6306871;22;19999;-74
2022/04/04 07:29:15;;;;;;;20.67;13.32;;;6.70;99.90;;;;;;6277749;22;20011;-74
2022/04/04 07:31:42;;;;;;;20.38;14.20;;;6.70;99.90;;;;;;6307891;22;20004;-74
2022/04/04 07:34:10;;;;;;;21.25;13.20;;;6.80;99.90;;;;;;6305680;22;20019;-74
2022/04/04 07:36:37;;;;;;;17.65;11.60;;;6.90;99.90;;;;;;6279678;22;20019;-74
2022/04/04 07:39:04;;;;;;;20.50;11.60;;;6.90;99.90;;;;;;6277874;22;20003;-75
2022/04/04 07:41:30;;;;;;;20.20;13.43;;;7.00;99.90;;;;;;6306752;22;20524;-75
2022/04/04 07:43:55;;;;;;;18.60;12.15;;;7.10;99.90;;;;;;6279548;22;20091;-75
2022/04/04 07:46:21;;;;;;;17.25;12.57;;;7.20;99.90;;;;;;6307197;22;20026;-74
2022/04/04 07:48:47;;;;;;;20.20;12.20;;;7.30;99.90;;;;;;6307618;22;20030;-74
2022/04/04 07:51:13;;;;;;;19.77;12.70;;;7.20;99.90;;;;;;6278268;22;20014;-75
2022/04/04 07:53:39;;;;;;;21.88;13.68;;;7.30;99.90;;;;;;6307263;22;20639;-75
2022/04/04 07:56:09;;;;;;;24.38;13.25;;;7.30;99.90;;;;;;6278278;22;20034;-74
2022/04/04 07:58:35;;;;;;;17.65;12.77;;;7.50;99.90;;;;;;6278902;22;20007;-74
2022/04/04 08:01:01;;;;;;;16.80;11.60;;;7.60;99.90;;;;;;6307762;22;19995;-74
2022/04/04 08:03:26;;;;;;;21.48;12.73;;;7.60;99.90;;;;;;6277426;22;20007;-74
2022/04/04 08:05:54;;;;;;;18.08;11.85;;;7.70;99.90;;;;;;6305677;22;20078;-74
2022/04/04 08:08:19;;;;;;;19.15;10.98;;;7.80;99.90;;;;;;6305830;22;20015;-73
2022/04/04 08:10:45;;;;;;;16.10;10.73;;;7.80;99.90;;;;;;6306062;22;20060;-74
2022/04/04 08:13:11;;;;;;;17.55;10.27;;;7.90;99.90;;;;;;6306849;22;20006;-75
2022/04/04 08:15:37;;;;;;;14.05;9.93;;;8.00;99.90;;;;;;6308167;22;20088;-74
2022/04/04 08:18:03;;;;;;;12.43;9.75;;;8.00;99.90;;;;;;6306698;22;20007;-74
2022/04/04 08:20:29;;;;;;;20.00;11.13;;;8.00;99.90;;;;;;6306689;22;20025;-74
2022/04/04 08:22:56;;;;;;;14.45;9.50;;;8.10;99.90;;;;;;6304979;22;20045;-74
2022/04/04 08:25:21;;;;;;;14.45;10.30;;;8.10;99.90;;;;;;6305442;22;20082;-74
2022/04/04 08:27:47;;;;;;;15.93;9.52;;;8.10;99.90;;;;;;6277769;22;20031;-74
2022/04/04 08:30:17;;;;;;;17.70;9.50;;;8.20;99.90;;;;;;6278573;22;20009;-74
2022/04/04 08:32:42;;;;;;;20.92;11.30;;;8.30;99.90;;;;;;6278018;22;20064;-74
2022/04/04 08:35:11;;;;;;;16.08;9.13;;;8.30;99.90;;;;;;6305057;22;20484;-74
2022/04/04 08:37:37;;;;;;;18.05;10.18;;;8.30;99.90;;;;;;6305672;22;20007;-74
2022/04/04 08:40:09;;;;;;;13.98;9.70;;;8.40;99.90;;;;;;6303966;22;20415;-74
2022/04/04 08:42:36;;;;;;;14.40;9.60;;;8.50;99.90;;;;;;6306997;22;20004;-74
2022/04/04 08:45:04;;;;;;;13.40;9.23;;;8.50;99.90;;;;;;6304736;22;20067;-74
2022/04/04 08:47:31;;;;;;;15.10;10.00;;;8.60;99.90;;;;;;6278915;22;19999;-74
2022/04/04 08:49:57;;;;;;;14.02;9.57;;;8.60;99.90;;;;;;6304946;22;20038;-74
2022/04/04 08:52:24;;;;;;;16.40;9.68;;;8.60;99.90;;;;;;6306561;22;20007;-74
2022/04/04 08:54:50;;;;;;;13.32;8.80;;;8.60;99.90;;;;;;6305903;22;20440;-74
2022/04/04 08:57:17;;;;;;;14.88;10.50;;;8.70;99.90;;;;;;6278428;22;20009;-75
2022/04/04 08:59:44;;;;;;;18.52;9.63;;;8.70;99.90;;;;;;6305399;22;20010;-74
2022/04/04 09:02:11;;;;;;;18.23;10.45;;;8.70;99.90;;;;;;6305544;22;19995;-74
2022/04/04 09:04:38;;;;;;;17.85;9.98;;;8.90;99.90;;;;;;6279368;22;20000;-74
2022/04/04 09:07:09;;;;;;;14.40;9.07;;;8.90;99.90;;;;;;6276771;22;20007;-74
2022/04/04 09:09:43;;;;;;;14.90;8.82;;;9.00;99.90;;;;;;6306053;22;19999;-74
2022/04/04 09:12:14;;;;;;;14.60;9.23;;;9.00;99.90;;;;;;6307469;22;20022;-74
2022/04/04 09:14:51;;;;;;;17.92;9.30;;;9.00;99.90;;;;;;6306143;22;20000;-74
2022/04/04 09:17:29;;;;;;;13.10;9.40;;;9.00;99.90;;;;;;6302889;22;20079;-74
2022/04/04 09:19:55;;;;;;;14.77;8.45;;;9.00;99.90;;;;;;6278452;22;20030;-74
2022/04/04 09:22:22;;;;;;;14.48;8.82;;;9.00;99.90;;;;;;6279653;22;20436;-74
2022/04/04 09:24:56;;;;;;;12.93;8.43;;;8.90;99.90;;;;;;6305351;22;20014;-75
2022/04/04 09:27:25;;;;;;;18.70;8.30;;;8.70;99.90;;;;;;6305807;22;20010;-74
2022/04/04 09:29:54;;;;;;;11.73;7.50;;;8.60;99.90;;;;;;6306953;22;20004;-74
2022/04/04 09:32:20;;;;;;;12.05;7.43;;;8.60;99.90;;;;;;6307372;22;20003;-74
2022/04/04 09:34:50;;;;;;;11.43;7.10;;;8.60;99.90;;;;;;6279075;22;20003;-74
2022/04/04 09:37:16;;;;;;;12.02;7.05;;;8.60;99.90;;;;;;6306897;22;20007;-74
2022/04/04 09:39:42;;;;;;;13.70;8.45;;;8.60;99.90;;;;;;6306904;22;19999;-74
2022/04/04 09:42:16;;;;;;;10.65;7.30;;;8.60;99.90;;;;;;6306797;22;20007;-74
2022/04/04 09:44:55;;;;;;;11.77;8.50;;;8.60;99.90;;;;;;6304393;22;20598;-74
2022/04/04 09:47:21;;;;;;;11.73;8.48;;;8.60;99.90;;;;;;6306211;22;20023;-73
2022/04/04 09:49:46;;;;;;;12.40;7.70;;;8.60;99.90;;;;;;6306327;22;20025;-74
2022/04/04 09:52:14;;;;;;;8.48;6.97;;;8.60;99.90;;;;;;6278997;22;20010;-74
2022/04/04 09:54:43;;;;;;;14.63;7.85;;;8.60;99.90;;;;;;6304585;22;19999;-73
2022/04/04 09:57:15;;;;;;;13.90;7.53;;;8.60;99.90;;;;;;6279217;22;20064;-74
2022/04/04 09:59:42;;;;;;;12.52;7.72;;;8.60;99.90;;;;;;6305203;22;20003;-74
2022/04/04 10:02:11;;;;;;;15.15;7.78;;;8.60;99.90;;;;;;6305906;22;20048;-74
2022/04/04 10:04:41;;;;;;;13.88;8.48;;;8.50;99.90;;;;;;6305118;22;20031;-74
2022/04/04 10:07:10;;;;;;;13.23;8.82;;;8.50;99.90;;;;;;6305749;22;20065;-74
2022/04/04 10:09:36;;;;;;;12.57;8.85;;;8.40;99.90;;;;;;6307099;22;20421;-74
2022/04/04 10:12:03;;;;;;;13.88;8.77;;;8.20;99.90;;;;;;6278928;22;19999;-74
2022/04/04 10:14:31;;;;;;;16.33;9.38;;;8.20;99.90;;;;;;6277806;22;20082;-74
2022/04/04 10:16:57;;;;;;;16.50;10.57;;;8.20;99.90;;;;;;6306484;22;20078;-74
2022/04/04 10:19:27;;;;;;;14.30;10.20;;;8.10;99.90;;;;;;6304329;22;20031;-74
2022/04/04 10:21:53;;;;;;;12.73;10.55;;;8.00;99.90;;;;;;6305480;22;20002;-75
2022/04/04 10:24:20;;;;;;;16.00;10.27;;;8.10;99.90;;;;;;6305639;22;20420;-75
2022/04/04 10:26:48;;;;;;;15.57;11.50;;;8.00;99.90;;;;;;6279215;22;19999;-75
2022/04/04 10:29:19;;;;;;;14.93;11.38;;;8.00;99.90;;;;;;6305568;22;20077;-74
2022/04/04 10:31:55;;;;;;;17.63;11.15;;;8.00;99.90;;;;;;6307143;22;20005;-74
2022/04/04 10:34:23;;;;;;;16.60;12.32;;;8.00;99.90;;;;;;6306348;22;20006;-75
2022/04/04 10:37:07;;;;;;;17.80;12.07;;;8.00;99.90;;;;;;6308209;22;20013;-74
2022/04/04 10:39:44;;;;;;;17.63;11.38;;;7.80;99.90;;;;;;6307160;22;20310;-74
2022/04/04 10:42:33;;;;;;;16.25;12.18;;;7.80;99.90;;;;;;6307619;22;20006;-75
2022/04/04 10:45:10;;;;;;;15.40;11.63;;;7.80;99.90;;;;;;6308910;22;20003;-75
2022/04/04 10:47:44;;;;;;;21.70;12.90;;;7.80;99.90;;;;;;6279625;22;20306;-74
2022/04/04 10:50:22;;;;;;;18.25;12.38;;;7.70;99.90;;;;;;6281112;22;20007;-74
2022/04/04 10:52:49;;;;;;;19.65;13.57;;;7.80;99.90;;;;;;6307846;22;20141;-74
2022/04/04 10:55:27;;;;;;;17.35;12.88;;;7.70;99.90;;;;;;6308190;22;20010;-74
2022/04/04 10:58:10;;;;;;;18.05;12.77;;;7.80;99.90;;;;;;6279602;22;20007;-74
2022/04/04 11:01:01;;;;;;;18.50;13.88;;;7.70;99.90;;;;;;6280747;22;20332;-74
2022/04/04 11:03:27;;;;;;;16.77;13.05;;;7.70;99.90;;;;;;6307562;22;19999;-74
2022/04/04 11:08:57;;;;;;;19.33;13.48;;;7.70;99.90;;;;;;6307414;22;20465;-74
2022/04/04 11:11:48;;;;;;;20.25;12.90;;;7.70;99.90;;;;;;6307417;22;20007;-74
2022/04/04 11:14:46;;;;;;;16.85;12.88;;;7.70;99.90;;;;;;6279568;22;20010;-74
2022/04/04 11:17:13;;;;;;;18.65;12.52;;;7.70;99.90;;;;;;6280533;22;20010;-75
2022/04/04 11:19:53;;;;;;;18.55;12.00;;;7.70;99.90;;;;;;6306708;22;20332;-74
2022/04/04 11:22:23;;;;;;;20.65;13.85;;;7.80;99.90;;;;;;6308138;22;20013;-74
2022/04/04 11:24:53;;;;;;;20.70;16.15;;;7.70;99.90;;;;;;6308449;22;20409;-74
2022/04/04 11:27:20;;;;;;;19.95;13.88;;;7.70;99.90;;;;;;6307837;22;20420;-75
2022/04/04 11:29:47;;;;;;;16.45;13.90;;;7.80;99.90;;;;;;6308229;22;20466;-74
2022/04/04 11:32:16;;;;;;;15.75;12.23;;;7.90;99.90;;;;;;6278851;22;20007;-75
2022/04/04 11:34:43;;;;;;;18.92;14.98;;;7.80;99.90;;;;;;6308198;22;20015;-74
2022/04/04 11:37:18;;;;;;;21.67;14.43;;;7.80;99.90;;;;;;6306586;22;20003;-74
2022/04/04 11:39:48;;;;;;;20.52;13.48;;;7.80;99.90;;;;;;6307906;22;20004;-74
2022/04/04 11:42:14;;;;;;;18.88;14.25;;;7.70;99.90;;;;;;6307583;22;20069;-75
2022/04/04 11:44:47;;;;;;;19.50;15.88;;;7.60;99.90;;;;;;6280043;22;20325;-74
2022/04/04 11:47:14;;;;;;;21.45;13.18;;;7.80;99.90;;;;;;6306549;22;19995;-75
2022/04/04 11:49:44;;;;;;;20.45;12.63;;;7.80;99.90;;;;;;6305163;22;20328;-74
2022/04/04 11:52:15;;;;;;;15.93;13.05;;;7.70;99.90;;;;;;6306625;22;20073;-75
2022/04/04 11:54:50;;;;;;;18.80;13.18;;;7.60;99.90;;;;;;6305785;22;20434;-74
2022/04/04 11:59:56;;;;;;;19.35;14.93;;;7.70;99.90;;;;;;6244442;23;20453;-81
2022/04/04 12:02:25;;;;;;;23.98;17.00;;;7.70;99.90;;;;;;6241954;23;20007;-77
2022/04/04 12:04:50;;;;;;;20.00;15.55;;;7.70;99.90;;;;;;6244829;22;20008;-76
2022/04/04 12:07:17;;;;;;;21.92;16.15;;;7.60;99.90;;;;;;6243699;22;20081;-76
2022/04/04 12:09:42;;;;;;;20.92;16.35;;;7.70;99.90;;;;;;6244730;22;20443;-76
2022/04/04 12:12:10;;;;;;;23.95;16.60;;;7.70;99.90;;;;;;6243403;22;20004;-76
2022/04/04 12:14:42;;;;;;;20.45;16.88;;;7.80;99.90;;;;;;6243755;22;20011;-87
2022/04/04 12:17:13;;;;;;;21.50;16.23;;;7.90;99.90;;;;;;6245328;22;20000;-80
2022/04/04 12:19:44;;;;;;;25.20;17.17;;;7.80;99.90;;;;;;6245266;22;20012;-84
2022/04/04 12:25:16;;;;;;;20.58;14.50;;;7.70;99.90;;;;;;6149878;23;20010;-78
2022/04/04 12:27:55;;;;;;;22.85;16.38;;;7.70;99.90;;;;;;6150892;23;20009;-86
2022/04/04 12:30:32;;;;;;;21.40;15.13;;;7.70;99.90;;;;;;6201770;22;20051;-84
2022/04/04 12:33:12;;;;;;;20.40;15.10;;;7.70;99.90;;;;;;6244896;22;20067;-85
2022/04/04 12:35:45;;;;;;;20.92;15.07;;;7.70;99.90;;;;;;6243594;22;20082;-84
2022/04/04 12:38:24;;;;;;;19.38;13.70;;;7.70;99.90;;;;;;6244597;22;20008;-82
2022/04/04 12:41:02;;;;;;;21.10;15.35;;;7.70;99.90;;;;;;6245387;22;20086;-84
2022/04/04 12:43:28;;;;;;;23.55;16.42;;;7.70;99.90;;;;;;6243155;22;20127;-79
2022/04/04 12:45:54;;;;;;;19.38;14.55;;;7.80;99.90;;;;;;6244775;22;20513;-86
2022/04/04 12:48:21;;;;;;;20.17;15.18;;;7.80;99.90;;;;;;6248330;22;20000;-86
2022/04/04 12:50:53;;;;;;;20.40;14.95;;;7.60;99.90;;;;;;6249824;22;19996;-87
2022/04/04 12:53:18;;;;;;;22.95;14.60;;;7.60;99.90;;;;;;6249320;22;20055;-88